»·PEaware :: N7357K KPDT-KPDX

N7357K :: KPDT-KPDX

FLIGHT INFORMATION

Flight Status: Arrived
Operator: Privately registered:
United States
More flights under this callsign
Pilot: Steve F. (18480)
Aircraft: BEECH AIRCRAFT BARON
(BE58)
More flights by this aircraft type
Origin: KPDT Eastern Oreg Regl At Pendleto
United States
Destination: KPDX Portland Intl
United States
More flights between these airports :: More routes between these airports
Route: +PDT V112 OGPAY V112 LTJ V112 BTG
File this flight plan on PilotEdge
Remarks:
Altitude:
(Current/Filed)
8,000ft
Speed:
(Current/Filed)
170kts
Departed: 28-Jul-18 07:50 PM
Arrived: 28-Jul-18 08:49 PM
Distance/Time
Traveled:
157nm/0:59
Distance/Time
To Go:
Arrived

Flight Plot

Page will automatically refresh every two minutes.

Flight plan parsing failed; only flown route is shown


Map Options




Map Legend


Flown Route
Filed Route
Departure Airport
Arrival Airport
Navaid (VOR, NDB)
Fix

Horizontal Profiles

Position Reports

Time Latitude Longitude Heading Altitude Ground
Speed
28-Jul-18 19:41 45.689637 -118.840072 41 1484ft 0kts
28-Jul-18 19:42 45.692295 -118.837132 2 1479ft 17kts
28-Jul-18 19:43 45.694310 -118.833193 90 1477ft 15kts
28-Jul-18 19:44 45.694491 -118.829088 46 1470ft 0kts
28-Jul-18 19:45 45.694491 -118.829088 46 1470ft 0kts
28-Jul-18 19:46 45.694491 -118.829088 46 1470ft 0kts
28-Jul-18 19:47 45.694491 -118.829088 46 1470ft 0kts
28-Jul-18 19:48 45.694491 -118.829088 46 1470ft 0kts
28-Jul-18 19:49 45.694491 -118.829088 46 1470ft 0kts
28-Jul-18 19:50 45.694532 -118.829035 38 1470ft 5kts
28-Jul-18 19:51 45.695138 -118.847994 270 1639ft 114kts
28-Jul-18 19:52 45.702608 -118.893705 297 2957ft 126kts
28-Jul-18 19:53 45.704140 -118.947083 267 3828ft 155kts
28-Jul-18 19:54 45.688969 -119.009020 242 4366ft 164kts
28-Jul-18 19:55 45.672329 -119.068021 255 5203ft 155kts
28-Jul-18 19:56 45.660439 -119.126302 255 6045ft 152kts
28-Jul-18 19:57 45.648936 -119.182942 255 6980ft 147kts
28-Jul-18 19:58 45.637495 -119.239103 255 7837ft 147kts
28-Jul-18 19:59 45.624826 -119.301442 255 7932ft 178kts
28-Jul-18 20:00 45.610590 -119.370975 255 7928ft 185kts
28-Jul-18 20:01 45.596206 -119.440864 255 7974ft 184kts
28-Jul-18 20:02 45.581533 -119.511961 255 7982ft 185kts
28-Jul-18 20:03 45.566851 -119.582767 255 7981ft 185kts
28-Jul-18 20:04 45.552331 -119.652559 254 7982ft 183kts
28-Jul-18 20:05 45.537852 -119.721980 254 7982ft 183kts
28-Jul-18 20:06 45.526756 -119.792336 283 7982ft 181kts
28-Jul-18 20:07 45.537674 -119.862018 282 7982ft 181kts
28-Jul-18 20:08 45.547943 -119.932567 283 7982ft 181kts
28-Jul-18 20:09 45.558275 -120.003020 283 7982ft 181kts
28-Jul-18 20:10 45.568521 -120.073093 283 7982ft 180kts
28-Jul-18 20:11 45.578739 -120.143256 283 7982ft 179kts
28-Jul-18 20:12 45.588780 -120.212545 283 7982ft 178kts
28-Jul-18 20:13 45.598777 -120.281843 283 7981ft 177kts
28-Jul-18 20:14 45.608659 -120.350664 283 7983ft 177kts
28-Jul-18 20:15 45.618517 -120.419627 283 7983ft 177kts
28-Jul-18 20:16 45.628322 -120.488515 283 7963ft 177kts
28-Jul-18 20:17 45.638108 -120.557630 283 7963ft 177kts
28-Jul-18 20:18 45.647831 -120.626599 283 7963ft 177kts
28-Jul-18 20:19 45.657483 -120.695374 283 7964ft 177kts
28-Jul-18 20:20 45.667132 -120.764445 283 7963ft 177kts
28-Jul-18 20:21 45.676690 -120.833196 283 7963ft 177kts
28-Jul-18 20:22 45.686284 -120.902531 283 7963ft 177kts
28-Jul-18 20:23 45.695806 -120.971672 283 7963ft 177kts
28-Jul-18 20:24 45.705337 -121.041243 283 7963ft 179kts
28-Jul-18 20:25 45.714001 -121.112134 273 7963ft 184kts
28-Jul-18 20:26 45.715966 -121.186500 274 7964ft 189kts
28-Jul-18 20:27 45.718152 -121.262428 274 7964ft 191kts
28-Jul-18 20:28 45.720264 -121.338610 274 7964ft 192kts
28-Jul-18 20:29 45.722331 -121.414950 274 7964ft 192kts
28-Jul-18 20:30 45.724354 -121.491536 274 7964ft 192kts
28-Jul-18 20:31 45.726316 -121.567759 274 7964ft 192kts
28-Jul-18 20:32 45.728241 -121.644525 274 7964ft 192kts
28-Jul-18 20:33 45.730103 -121.720807 273 7972ft 191kts
28-Jul-18 20:34 45.731813 -121.796560 272 7995ft 190kts
28-Jul-18 20:35 45.725994 -121.869094 227 8024ft 187kts
28-Jul-18 20:36 45.689713 -121.923678 225 7690ft 195kts
28-Jul-18 20:37 45.651066 -121.980669 225 6771ft 203kts
28-Jul-18 20:38 45.613717 -122.035213 225 6080ft 172kts
28-Jul-18 20:39 45.580933 -122.082880 225 6019ft 175kts
28-Jul-18 20:40 45.549993 -122.128343 225 5565ft 164kts
28-Jul-18 20:41 45.519414 -122.172954 225 5373ft 148kts
28-Jul-18 20:42 45.498931 -122.221437 262 5146ft 157kts
28-Jul-18 20:43 45.492619 -122.286459 263 4185ft 166kts
28-Jul-18 20:44 45.494680 -122.344245 301 3190ft 138kts
28-Jul-18 20:45 45.512963 -122.388625 302 2725ft 125kts
28-Jul-18 20:46 45.531235 -122.430679 299 2315ft 124kts
28-Jul-18 20:47 45.546768 -122.474807 297 1665ft 122kts
28-Jul-18 20:48 45.561494 -122.509005 303 935ft 120kts
28-Jul-18 20:49 45.577094 -122.550049 299 348ft 110kts
28-Jul-18 20:50 45.589078 -122.581076 286 17ft 25kts
28-Jul-18 20:51 45.587939 -122.582758 210 17ft 11kts

Navigation Log

Ident Type
Flight plan parsing failed, navigation log unavailable